sensor_id;sensor_type;location;lat;lon;timestamp;P1;durP1;ratioP1;P2;durP2;ratioP2
62509;SDS011;48558;48.242;11.654;2022-11-20T00:03:25;4.15;;;1.73;;
62509;SDS011;48558;48.242;11.654;2022-11-20T00:07:37;2.08;;;1.88;;
62509;SDS011;48558;48.242;11.654;2022-11-20T00:11:49;1.70;;;1.60;;
62509;SDS011;48558;48.242;11.654;2022-11-20T00:16:02;2.63;;;1.83;;
62509;SDS011;48558;48.242;11.654;2022-11-20T00:20:16;1.60;;;1.50;;
62509;SDS011;48558;48.242;11.654;2022-11-20T00:24:29;1.88;;;1.77;;
62509;SDS011;48558;48.242;11.654;2022-11-20T00:28:42;2.03;;;1.83;;
62509;SDS011;48558;48.242;11.654;2022-11-20T00:32:59;1.77;;;1.67;;
62509;SDS011;48558;48.242;11.654;2022-11-20T00:37:12;1.55;;;1.45;;
62509;SDS011;48558;48.242;11.654;2022-11-20T00:41:24;1.70;;;1.60;;
62509;SDS011;48558;48.242;11.654;2022-11-20T00:45:38;2.30;;;1.63;;
62509;SDS011;48558;48.242;11.654;2022-11-20T00:49:52;1.67;;;1.58;;
62509;SDS011;48558;48.242;11.654;2022-11-20T00:54:04;3.67;;;1.90;;
62509;SDS011;48558;48.242;11.654;2022-11-20T00:58:17;3.03;;;1.75;;
62509;SDS011;48558;48.242;11.654;2022-11-20T01:02:29;2.03;;;1.83;;
62509;SDS011;48558;48.242;11.654;2022-11-20T01:06:41;2.10;;;1.63;;
62509;SDS011;48558;48.242;11.654;2022-11-20T01:10:58;3.03;;;1.73;;
62509;SDS011;48558;48.242;11.654;2022-11-20T01:15:11;2.08;;;1.85;;
62509;SDS011;48558;48.242;11.654;2022-11-20T01:19:23;1.55;;;1.45;;
62509;SDS011;48558;48.242;11.654;2022-11-20T01:23:37;1.70;;;1.60;;
62509;SDS011;48558;48.242;11.654;2022-11-20T01:27:51;1.75;;;1.60;;
62509;SDS011;48558;48.242;11.654;2022-11-20T01:32:03;4.03;;;1.80;;
62509;SDS011;48558;48.242;11.654;2022-11-20T01:36:16;1.65;;;1.52;;
62509;SDS011;48558;48.242;11.654;2022-11-20T01:40:29;2.47;;;2.22;;
62509;SDS011;48558;48.242;11.654;2022-11-20T01:44:52;1.70;;;1.60;;
62509;SDS011;48558;48.242;11.654;2022-11-20T01:53:32;2.25;;;1.80;;
62509;SDS011;48558;48.242;11.654;2022-11-20T01:57:48;1.60;;;1.50;;
62509;SDS011;48558;48.242;11.654;2022-11-20T02:02:01;2.35;;;2.15;;
62509;SDS011;48558;48.242;11.654;2022-11-20T02:06:24;1.95;;;1.85;;
62509;SDS011;48558;48.242;11.654;2022-11-20T02:10:39;4.88;;;1.75;;
62509;SDS011;48558;48.242;11.654;2022-11-20T02:14:52;2.13;;;1.92;;
62509;SDS011;48558;48.242;11.654;2022-11-20T02:19:05;2.28;;;2.08;;
62509;SDS011;48558;48.242;11.654;2022-11-20T02:23:52;1.90;;;1.55;;
62509;SDS011;48558;48.242;11.654;2022-11-20T02:28:13;1.90;;;1.73;;
62509;SDS011;48558;48.242;11.654;2022-11-20T02:32:35;1.80;;;1.70;;
62509;SDS011;48558;48.242;11.654;2022-11-20T02:36:48;1.40;;;1.40;;
62509;SDS011;48558;48.242;11.654;2022-11-20T02:41:01;3.40;;;2.53;;
62509;SDS011;48558;48.242;11.654;2022-11-20T02:45:14;1.98;;;1.77;;
62509;SDS011;48558;48.242;11.654;2022-11-20T02:49:26;1.85;;;1.75;;
62509;SDS011;48558;48.242;11.654;2022-11-20T02:53:39;2.05;;;1.83;;
62509;SDS011;48558;48.242;11.654;2022-11-20T02:57:57;1.40;;;1.30;;
62509;SDS011;48558;48.242;11.654;2022-11-20T03:02:10;5.72;;;1.92;;
62509;SDS011;48558;48.242;11.654;2022-11-20T03:06:22;1.88;;;1.73;;
62509;SDS011;48558;48.242;11.654;2022-11-20T03:10:34;1.83;;;1.73;;
62509;SDS011;48558;48.242;11.654;2022-11-20T03:14:46;1.70;;;1.60;;
62509;SDS011;48558;48.242;11.654;2022-11-20T03:19:03;4.47;;;1.83;;
62509;SDS011;48558;48.242;11.654;2022-11-20T03:23:15;1.92;;;1.83;;
62509;SDS011;48558;48.242;11.654;2022-11-20T03:27:31;2.53;;;2.13;;
62509;SDS011;48558;48.242;11.654;2022-11-20T03:31:44;3.55;;;2.08;;
62509;SDS011;48558;48.242;11.654;2022-11-20T03:36:00;2.80;;;1.92;;
62509;SDS011;48558;48.242;11.654;2022-11-20T03:40:13;2.65;;;1.85;;
62509;SDS011;48558;48.242;11.654;2022-11-20T03:44:26;1.73;;;1.63;;
62509;SDS011;48558;48.242;11.654;2022-11-20T03:48:38;1.80;;;1.70;;
62509;SDS011;48558;48.242;11.654;2022-11-20T03:52:50;2.17;;;1.80;;
62509;SDS011;48558;48.242;11.654;2022-11-20T03:57:02;2.05;;;1.95;;
62509;SDS011;48558;48.242;11.654;2022-11-20T04:01:16;1.60;;;1.50;;
62509;SDS011;48558;48.242;11.654;2022-11-20T04:05:33;1.92;;;1.75;;
62509;SDS011;48558;48.242;11.654;2022-11-20T04:09:46;1.55;;;1.45;;
62509;SDS011;48558;48.242;11.654;2022-11-20T04:13:59;2.05;;;1.85;;
62509;SDS011;48558;48.242;11.654;2022-11-20T04:18:12;1.83;;;1.67;;
62509;SDS011;48558;48.242;11.654;2022-11-20T04:22:25;1.60;;;1.50;;
62509;SDS011;48558;48.242;11.654;2022-11-20T04:26:37;1.98;;;1.80;;
62509;SDS011;48558;48.242;11.654;2022-11-20T04:30:50;1.95;;;1.85;;
62509;SDS011;48558;48.242;11.654;2022-11-20T04:35:09;1.02;;;1.02;;
62509;SDS011;48558;48.242;11.654;2022-11-20T04:39:21;1.50;;;1.40;;
62509;SDS011;48558;48.242;11.654;2022-11-20T04:43:34;1.50;;;1.40;;
62509;SDS011;48558;48.242;11.654;2022-11-20T04:47:46;1.88;;;1.75;;
62509;SDS011;48558;48.242;11.654;2022-11-20T04:51:58;1.48;;;1.38;;
62509;SDS011;48558;48.242;11.654;2022-11-20T04:56:11;1.77;;;1.67;;
62509;SDS011;48558;48.242;11.654;2022-11-20T05:00:24;3.03;;;1.60;;
62509;SDS011;48558;48.242;11.654;2022-11-20T05:04:40;3.42;;;1.60;;
62509;SDS011;48558;48.242;11.654;2022-11-20T05:08:53;1.63;;;1.52;;
62509;SDS011;48558;48.242;11.654;2022-11-20T05:13:05;1.80;;;1.70;;
62509;SDS011;48558;48.242;11.654;2022-11-20T05:17:17;1.77;;;1.60;;
62509;SDS011;48558;48.242;11.654;2022-11-20T05:21:30;1.60;;;1.50;;
62509;SDS011;48558;48.242;11.654;2022-11-20T05:25:42;2.20;;;1.77;;
62509;SDS011;48558;48.242;11.654;2022-11-20T05:29:54;1.42;;;1.40;;
62509;SDS011;48558;48.242;11.654;2022-11-20T05:34:07;3.13;;;1.60;;
62509;SDS011;48558;48.242;11.654;2022-11-20T05:38:19;1.60;;;1.50;;
62509;SDS011;48558;48.242;11.654;2022-11-20T05:42:31;1.98;;;1.70;;
62509;SDS011;48558;48.242;11.654;2022-11-20T05:46:44;2.35;;;1.83;;
62509;SDS011;48558;48.242;11.654;2022-11-20T05:50:56;1.70;;;1.60;;
62509;SDS011;48558;48.242;11.654;2022-11-20T05:55:10;2.42;;;1.85;;
62509;SDS011;48558;48.242;11.654;2022-11-20T05:59:22;2.45;;;1.63;;
62509;SDS011;48558;48.242;11.654;2022-11-20T06:03:35;1.85;;;1.75;;
62509;SDS011;48558;48.242;11.654;2022-11-20T06:07:48;2.47;;;2.28;;
62509;SDS011;48558;48.242;11.654;2022-11-20T06:12:00;1.77;;;1.67;;
62509;SDS011;48558;48.242;11.654;2022-11-20T06:16:13;1.70;;;1.60;;
62509;SDS011;48558;48.242;11.654;2022-11-20T06:20:27;1.95;;;1.85;;
62509;SDS011;48558;48.242;11.654;2022-11-20T06:24:39;2.05;;;1.80;;
62509;SDS011;48558;48.242;11.654;2022-11-20T06:28:52;3.80;;;2.00;;
62509;SDS011;48558;48.242;11.654;2022-11-20T06:33:05;1.73;;;1.50;;
62509;SDS011;48558;48.242;11.654;2022-11-20T06:37:17;0.88;;;0.88;;
62509;SDS011;48558;48.242;11.654;2022-11-20T06:41:29;1.85;;;1.70;;
62509;SDS011;48558;48.242;11.654;2022-11-20T06:45:42;2.13;;;1.92;;
62509;SDS011;48558;48.242;11.654;2022-11-20T06:49:54;1.33;;;1.30;;
62509;SDS011;48558;48.242;11.654;2022-11-20T06:54:06;1.65;;;1.50;;
62509;SDS011;48558;48.242;11.654;2022-11-20T06:58:19;1.50;;;1.40;;
62509;SDS011;48558;48.242;11.654;2022-11-20T07:02:31;1.60;;;1.50;;
62509;SDS011;48558;48.242;11.654;2022-11-20T07:06:43;1.42;;;1.33;;
62509;SDS011;48558;48.242;11.654;2022-11-20T07:11:01;1.63;;;1.52;;
62509;SDS011;48558;48.242;11.654;2022-11-20T07:15:15;1.60;;;1.50;;
62509;SDS011;48558;48.242;11.654;2022-11-20T07:19:28;1.10;;;1.10;;
62509;SDS011;48558;48.242;11.654;2022-11-20T07:23:40;2.15;;;1.40;;
62509;SDS011;48558;48.242;11.654;2022-11-20T07:27:53;1.33;;;1.27;;
62509;SDS011;48558;48.242;11.654;2022-11-20T07:32:08;1.40;;;1.30;;
62509;SDS011;48558;48.242;11.654;2022-11-20T07:36:20;1.48;;;1.38;;
62509;SDS011;48558;48.242;11.654;2022-11-20T07:40:32;1.20;;;1.10;;
62509;SDS011;48558;48.242;11.654;2022-11-20T07:44:45;1.83;;;1.40;;
62509;SDS011;48558;48.242;11.654;2022-11-20T07:48:57;1.40;;;1.30;;
62509;SDS011;48558;48.242;11.654;2022-11-20T07:53:09;1.67;;;1.38;;
62509;SDS011;48558;48.242;11.654;2022-11-20T07:57:22;1.98;;;1.30;;
62509;SDS011;48558;48.242;11.654;2022-11-20T08:01:39;1.17;;;1.10;;
62509;SDS011;48558;48.242;11.654;2022-11-20T08:05:51;1.38;;;1.25;;
62509;SDS011;48558;48.242;11.654;2022-11-20T08:10:04;1.92;;;1.63;;
62509;SDS011;48558;48.242;11.654;2022-11-20T08:14:18;2.63;;;1.17;;
62509;SDS011;48558;48.242;11.654;2022-11-20T08:18:30;1.98;;;1.30;;
62509;SDS011;48558;48.242;11.654;2022-11-20T08:22:43;1.70;;;1.60;;
62509;SDS011;48558;48.242;11.654;2022-11-20T08:26:57;1.83;;;1.40;;
62509;SDS011;48558;48.242;11.654;2022-11-20T08:31:10;1.52;;;1.40;;
62509;SDS011;48558;48.242;11.654;2022-11-20T08:35:23;1.35;;;1.25;;
62509;SDS011;48558;48.242;11.654;2022-11-20T08:39:35;1.60;;;1.50;;
62509;SDS011;48558;48.242;11.654;2022-11-20T08:43:47;1.10;;;1.10;;
62509;SDS011;48558;48.242;11.654;2022-11-20T08:48:01;1.38;;;1.27;;
62509;SDS011;48558;48.242;11.654;2022-11-20T08:52:14;1.35;;;1.25;;
62509;SDS011;48558;48.242;11.654;2022-11-20T08:56:27;1.52;;;1.42;;
62509;SDS011;48558;48.242;11.654;2022-11-20T09:00:39;2.17;;;1.42;;
62509;SDS011;48558;48.242;11.654;2022-11-20T09:04:51;1.70;;;1.60;;
62509;SDS011;48558;48.242;11.654;2022-11-20T09:09:05;1.45;;;1.35;;
62509;SDS011;48558;48.242;11.654;2022-11-20T09:13:17;1.20;;;1.20;;
62509;SDS011;48558;48.242;11.654;2022-11-20T09:17:30;1.63;;;1.52;;
62509;SDS011;48558;48.242;11.654;2022-11-20T09:21:43;1.85;;;1.10;;
62509;SDS011;48558;48.242;11.654;2022-11-20T09:25:55;1.45;;;1.35;;
62509;SDS011;48558;48.242;11.654;2022-11-20T09:30:12;2.30;;;1.55;;
62509;SDS011;48558;48.242;11.654;2022-11-20T09:34:25;1.30;;;1.20;;
62509;SDS011;48558;48.242;11.654;2022-11-20T09:38:37;1.25;;;1.17;;
62509;SDS011;48558;48.242;11.654;2022-11-20T09:51:53;0.90;;;0.90;;
62509;SDS011;48558;48.242;11.654;2022-11-20T09:56:10;2.83;;;1.25;;
62509;SDS011;48558;48.242;11.654;2022-11-20T10:00:26;1.00;;;1.00;;
62509;SDS011;48558;48.242;11.654;2022-11-20T10:04:41;1.73;;;0.95;;
62509;SDS011;48558;48.242;11.654;2022-11-20T10:09:01;1.20;;;1.20;;
62509;SDS011;48558;48.242;11.654;2022-11-20T10:36:36;1.13;;;1.13;;
62509;SDS011;48558;48.242;11.654;2022-11-20T10:40:59;1.48;;;1.30;;
62509;SDS011;48558;48.242;11.654;2022-11-20T10:45:36;2.05;;;1.27;;
62509;SDS011;48558;48.242;11.654;2022-11-20T10:49:55;0.90;;;0.90;;
62509;SDS011;48558;48.242;11.654;2022-11-20T10:54:22;1.38;;;1.10;;
62509;SDS011;48558;48.242;11.654;2022-11-20T10:58:45;2.75;;;1.20;;
62509;SDS011;48558;48.242;11.654;2022-11-20T11:07:39;0.88;;;0.88;;
62509;SDS011;48558;48.242;11.654;2022-11-20T11:11:53;1.80;;;1.10;;
62509;SDS011;48558;48.242;11.654;2022-11-20T11:16:05;0.50;;;0.50;;
62509;SDS011;48558;48.242;11.654;2022-11-20T11:20:26;1.52;;;0.90;;
62509;SDS011;48558;48.242;11.654;2022-11-20T11:24:43;0.65;;;0.65;;
62509;SDS011;48558;48.242;11.654;2022-11-20T11:29:04;0.65;;;0.65;;
62509;SDS011;48558;48.242;11.654;2022-11-20T11:33:26;1.13;;;1.00;;
62509;SDS011;48558;48.242;11.654;2022-11-20T11:37:41;5.90;;;0.88;;
62509;SDS011;48558;48.242;11.654;2022-11-20T11:41:53;0.65;;;0.65;;
62509;SDS011;48558;48.242;11.654;2022-11-20T11:46:23;0.70;;;0.70;;
62509;SDS011;48558;48.242;11.654;2022-11-20T11:50:37;0.90;;;0.90;;
62509;SDS011;48558;48.242;11.654;2022-11-20T11:55:00;0.85;;;0.85;;
62509;SDS011;48558;48.242;11.654;2022-11-20T11:59:38;0.90;;;0.90;;
62509;SDS011;48558;48.242;11.654;2022-11-20T12:04:07;0.70;;;0.70;;
62509;SDS011;48558;48.242;11.654;2022-11-20T12:13:55;1.75;;;1.10;;
62509;SDS011;48558;48.242;11.654;2022-11-20T12:17:53;0.90;;;0.90;;
62509;SDS011;48558;48.242;11.654;2022-11-20T12:40:35;5.68;;;0.80;;
62509;SDS011;48558;48.242;11.654;2022-11-20T12:45:10;0.45;;;0.45;;
62509;SDS011;48558;48.242;11.654;2022-11-20T12:54:03;1.00;;;1.00;;
62509;SDS011;48558;48.242;11.654;2022-11-20T13:07:29;1.80;;;1.13;;
62509;SDS011;48558;48.242;11.654;2022-11-20T13:11:57;0.88;;;0.88;;
62509;SDS011;48558;48.242;11.654;2022-11-20T13:20:48;1.00;;;0.82;;
62509;SDS011;48558;48.242;11.654;2022-11-20T13:25:01;0.80;;;0.80;;
62509;SDS011;48558;48.242;11.654;2022-11-20T13:29:17;0.70;;;0.70;;
62509;SDS011;48558;48.242;11.654;2022-11-20T13:33:32;1.00;;;1.00;;
62509;SDS011;48558;48.242;11.654;2022-11-20T13:37:47;1.77;;;1.00;;
62509;SDS011;48558;48.242;11.654;2022-11-20T13:46:12;0.68;;;0.68;;
62509;SDS011;48558;48.242;11.654;2022-11-20T13:50:38;1.13;;;0.93;;
62509;SDS011;48558;48.242;11.654;2022-11-20T14:03:52;0.93;;;0.93;;
62509;SDS011;48558;48.242;11.654;2022-11-20T14:08:25;1.00;;;1.00;;
62509;SDS011;48558;48.242;11.654;2022-11-20T14:12:54;1.60;;;0.93;;
62509;SDS011;48558;48.242;11.654;2022-11-20T14:17:20;1.25;;;1.10;;
62509;SDS011;48558;48.242;11.654;2022-11-20T14:21:34;1.23;;;1.20;;
62509;SDS011;48558;48.242;11.654;2022-11-20T14:25:47;1.20;;;1.20;;
62509;SDS011;48558;48.242;11.654;2022-11-20T14:30:00;1.33;;;1.10;;
62509;SDS011;48558;48.242;11.654;2022-11-20T14:34:14;1.08;;;1.08;;
62509;SDS011;48558;48.242;11.654;2022-11-20T14:38:31;0.98;;;0.93;;
62509;SDS011;48558;48.242;11.654;2022-11-20T14:42:48;1.10;;;1.10;;
62509;SDS011;48558;48.242;11.654;2022-11-20T14:47:00;1.48;;;0.95;;
62509;SDS011;48558;48.242;11.654;2022-11-20T14:56:00;2.55;;;0.98;;
62509;SDS011;48558;48.242;11.654;2022-11-20T15:04:26;1.15;;;1.05;;
62509;SDS011;48558;48.242;11.654;2022-11-20T15:08:38;1.30;;;1.20;;
62509;SDS011;48558;48.242;11.654;2022-11-20T15:13:03;1.30;;;1.20;;
62509;SDS011;48558;48.242;11.654;2022-11-20T15:17:48;0.75;;;0.75;;
62509;SDS011;48558;48.242;11.654;2022-11-20T15:22:01;1.65;;;0.80;;
62509;SDS011;48558;48.242;11.654;2022-11-20T15:26:14;0.80;;;0.80;;
62509;SDS011;48558;48.242;11.654;2022-11-20T15:30:32;0.70;;;0.70;;
62509;SDS011;48558;48.242;11.654;2022-11-20T15:34:44;1.10;;;1.00;;
62509;SDS011;48558;48.242;11.654;2022-11-20T15:38:57;2.13;;;1.35;;
62509;SDS011;48558;48.242;11.654;2022-11-20T15:43:09;0.80;;;0.80;;
62509;SDS011;48558;48.242;11.654;2022-11-20T15:47:28;1.15;;;0.63;;
62509;SDS011;48558;48.242;11.654;2022-11-20T15:51:44;0.47;;;0.47;;
62509;SDS011;48558;48.242;11.654;2022-11-20T15:55:59;0.70;;;0.70;;
62509;SDS011;48558;48.242;11.654;2022-11-20T16:00:11;0.55;;;0.55;;
62509;SDS011;48558;48.242;11.654;2022-11-20T16:04:26;0.75;;;0.75;;
62509;SDS011;48558;48.242;11.654;2022-11-20T16:08:38;0.82;;;0.82;;
62509;SDS011;48558;48.242;11.654;2022-11-20T16:12:59;0.73;;;0.73;;
62509;SDS011;48558;48.242;11.654;2022-11-20T16:17:30;0.70;;;0.70;;
62509;SDS011;48558;48.242;11.654;2022-11-20T16:21:54;0.90;;;0.70;;
62509;SDS011;48558;48.242;11.654;2022-11-20T16:26:13;2.17;;;0.80;;
62509;SDS011;48558;48.242;11.654;2022-11-20T16:30:28;1.75;;;0.63;;
62509;SDS011;48558;48.242;11.654;2022-11-20T16:34:41;0.80;;;0.80;;
62509;SDS011;48558;48.242;11.654;2022-11-20T16:38:53;0.60;;;0.60;;
62509;SDS011;48558;48.242;11.654;2022-11-20T16:43:08;1.23;;;0.80;;
62509;SDS011;48558;48.242;11.654;2022-11-20T16:47:22;0.70;;;0.70;;
62509;SDS011;48558;48.242;11.654;2022-11-20T16:51:35;1.35;;;1.10;;
62509;SDS011;48558;48.242;11.654;2022-11-20T16:55:47;0.52;;;0.52;;
62509;SDS011;48558;48.242;11.654;2022-11-20T16:59:59;1.10;;;0.70;;
62509;SDS011;48558;48.242;11.654;2022-11-20T17:04:13;0.60;;;0.60;;
62509;SDS011;48558;48.242;11.654;2022-11-20T17:08:27;0.80;;;0.80;;
62509;SDS011;48558;48.242;11.654;2022-11-20T17:12:41;0.90;;;0.80;;
62509;SDS011;48558;48.242;11.654;2022-11-20T17:16:55;0.70;;;0.70;;
62509;SDS011;48558;48.242;11.654;2022-11-20T17:21:07;1.33;;;1.25;;
62509;SDS011;48558;48.242;11.654;2022-11-20T17:25:31;1.27;;;1.17;;
62509;SDS011;48558;48.242;11.654;2022-11-20T17:29:44;1.35;;;1.10;;
62509;SDS011;48558;48.242;11.654;2022-11-20T17:33:56;1.10;;;1.10;;
62509;SDS011;48558;48.242;11.654;2022-11-20T17:38:11;0.85;;;0.85;;
62509;SDS011;48558;48.242;11.654;2022-11-20T17:42:23;1.00;;;1.00;;
62509;SDS011;48558;48.242;11.654;2022-11-20T17:46:39;1.08;;;1.02;;
62509;SDS011;48558;48.242;11.654;2022-11-20T17:50:52;1.55;;;0.80;;
62509;SDS011;48558;48.242;11.654;2022-11-20T17:55:04;0.80;;;0.80;;
62509;SDS011;48558;48.242;11.654;2022-11-20T17:59:17;1.92;;;0.90;;
62509;SDS011;48558;48.242;11.654;2022-11-20T18:03:29;1.23;;;1.17;;
62509;SDS011;48558;48.242;11.654;2022-11-20T18:07:42;1.33;;;1.23;;
62509;SDS011;48558;48.242;11.654;2022-11-20T18:11:54;1.33;;;1.23;;
62509;SDS011;48558;48.242;11.654;2022-11-20T18:16:07;1.45;;;1.35;;
62509;SDS011;48558;48.242;11.654;2022-11-20T18:20:19;2.30;;;1.52;;
62509;SDS011;48558;48.242;11.654;2022-11-20T18:24:39;2.13;;;1.92;;
62509;SDS011;48558;48.242;11.654;2022-11-20T18:28:53;3.70;;;2.15;;
62509;SDS011;48558;48.242;11.654;2022-11-20T18:33:15;1.95;;;1.85;;
62509;SDS011;48558;48.242;11.654;2022-11-20T18:37:28;2.70;;;1.77;;
62509;SDS011;48558;48.242;11.654;2022-11-20T18:41:42;2.25;;;2.05;;
62509;SDS011;48558;48.242;11.654;2022-11-20T18:46:24;2.10;;;1.90;;
62509;SDS011;48558;48.242;11.654;2022-11-20T18:50:36;1.63;;;1.52;;
62509;SDS011;48558;48.242;11.654;2022-11-20T18:54:49;1.60;;;1.50;;
62509;SDS011;48558;48.242;11.654;2022-11-20T18:59:02;1.70;;;1.60;;
62509;SDS011;48558;48.242;11.654;2022-11-20T19:03:16;2.30;;;2.03;;
62509;SDS011;48558;48.242;11.654;2022-11-20T19:07:29;2.08;;;1.80;;
62509;SDS011;48558;48.242;11.654;2022-11-20T19:11:41;1.60;;;1.50;;
62509;SDS011;48558;48.242;11.654;2022-11-20T19:15:54;2.33;;;1.65;;
62509;SDS011;48558;48.242;11.654;2022-11-20T19:20:13;2.50;;;2.30;;
62509;SDS011;48558;48.242;11.654;2022-11-20T19:24:25;2.00;;;1.65;;
62509;SDS011;48558;48.242;11.654;2022-11-20T19:28:39;2.50;;;2.20;;
62509;SDS011;48558;48.242;11.654;2022-11-20T19:32:51;2.50;;;1.98;;
62509;SDS011;48558;48.242;11.654;2022-11-20T19:37:04;2.22;;;1.95;;
62509;SDS011;48558;48.242;11.654;2022-11-20T19:41:17;1.70;;;1.60;;
62509;SDS011;48558;48.242;11.654;2022-11-20T19:45:31;3.75;;;2.20;;
62509;SDS011;48558;48.242;11.654;2022-11-20T19:49:43;3.13;;;1.92;;
62509;SDS011;48558;48.242;11.654;2022-11-20T19:53:56;3.17;;;2.35;;
62509;SDS011;48558;48.242;11.654;2022-11-20T19:58:09;4.22;;;2.47;;
62509;SDS011;48558;48.242;11.654;2022-11-20T20:02:21;2.20;;;2.00;;
62509;SDS011;48558;48.242;11.654;2022-11-20T20:06:34;3.25;;;1.85;;
62509;SDS011;48558;48.242;11.654;2022-11-20T20:10:50;3.63;;;2.13;;
62509;SDS011;48558;48.242;11.654;2022-11-20T20:15:09;4.55;;;2.30;;
62509;SDS011;48558;48.242;11.654;2022-11-20T20:19:21;4.10;;;2.50;;
62509;SDS011;48558;48.242;11.654;2022-11-20T20:23:34;2.95;;;1.98;;
62509;SDS011;48558;48.242;11.654;2022-11-20T20:27:47;3.25;;;1.95;;
62509;SDS011;48558;48.242;11.654;2022-11-20T20:31:59;2.30;;;2.10;;
62509;SDS011;48558;48.242;11.654;2022-11-20T20:36:12;5.10;;;2.60;;
62509;SDS011;48558;48.242;11.654;2022-11-20T20:40:26;2.25;;;2.05;;
62509;SDS011;48558;48.242;11.654;2022-11-20T20:44:39;3.17;;;2.40;;
62509;SDS011;48558;48.242;11.654;2022-11-20T20:49:10;2.15;;;1.95;;
62509;SDS011;48558;48.242;11.654;2022-11-20T20:53:22;2.17;;;1.98;;
62509;SDS011;48558;48.242;11.654;2022-11-20T20:57:35;2.85;;;2.28;;
62509;SDS011;48558;48.242;11.654;2022-11-20T21:01:48;5.68;;;2.42;;
62509;SDS011;48558;48.242;11.654;2022-11-20T21:06:00;3.83;;;2.83;;
62509;SDS011;48558;48.242;11.654;2022-11-20T21:10:14;3.10;;;2.28;;
62509;SDS011;48558;48.242;11.654;2022-11-20T21:14:33;2.40;;;2.20;;
62509;SDS011;48558;48.242;11.654;2022-11-20T21:18:46;2.30;;;2.05;;
62509;SDS011;48558;48.242;11.654;2022-11-20T21:22:59;1.70;;;1.58;;
62509;SDS011;48558;48.242;11.654;2022-11-20T21:27:11;2.25;;;2.00;;
62509;SDS011;48558;48.242;11.654;2022-11-20T21:31:24;2.00;;;1.90;;
62509;SDS011;48558;48.242;11.654;2022-11-20T21:35:37;4.95;;;2.00;;
62509;SDS011;48558;48.242;11.654;2022-11-20T21:39:49;1.23;;;1.13;;
62509;SDS011;48558;48.242;11.654;2022-11-20T21:44:02;1.27;;;1.17;;
62509;SDS011;48558;48.242;11.654;2022-11-20T21:48:36;1.05;;;1.05;;
62509;SDS011;48558;48.242;11.654;2022-11-20T21:52:50;1.40;;;1.30;;
62509;SDS011;48558;48.242;11.654;2022-11-20T21:57:03;1.23;;;1.13;;
62509;SDS011;48558;48.242;11.654;2022-11-20T22:01:22;0.60;;;0.60;;
62509;SDS011;48558;48.242;11.654;2022-11-20T22:05:39;1.35;;;1.10;;
62509;SDS011;48558;48.242;11.654;2022-11-20T22:09:51;1.10;;;1.00;;
62509;SDS011;48558;48.242;11.654;2022-11-20T22:14:04;1.02;;;0.93;;
62509;SDS011;48558;48.242;11.654;2022-11-20T22:18:32;1.17;;;0.90;;
62509;SDS011;48558;48.242;11.654;2022-11-20T22:22:44;2.15;;;0.70;;
62509;SDS011;48558;48.242;11.654;2022-11-20T22:26:56;0.93;;;0.93;;
62509;SDS011;48558;48.242;11.654;2022-11-20T22:31:09;1.35;;;1.20;;
62509;SDS011;48558;48.242;11.654;2022-11-20T22:35:22;1.02;;;0.95;;
62509;SDS011;48558;48.242;11.654;2022-11-20T22:39:35;1.25;;;1.15;;
62509;SDS011;48558;48.242;11.654;2022-11-20T22:43:47;1.00;;;1.00;;
62509;SDS011;48558;48.242;11.654;2022-11-20T22:48:05;1.27;;;1.10;;
62509;SDS011;48558;48.242;11.654;2022-11-20T22:52:17;2.05;;;0.93;;
62509;SDS011;48558;48.242;11.654;2022-11-20T22:56:37;0.88;;;0.80;;
62509;SDS011;48558;48.242;11.654;2022-11-20T23:00:50;0.80;;;0.80;;
62509;SDS011;48558;48.242;11.654;2022-11-20T23:05:02;0.57;;;0.55;;
62509;SDS011;48558;48.242;11.654;2022-11-20T23:09:15;0.70;;;0.70;;
62509;SDS011;48558;48.242;11.654;2022-11-20T23:13:28;0.98;;;0.47;;
62509;SDS011;48558;48.242;11.654;2022-11-20T23:17:41;0.60;;;0.60;;
62509;SDS011;48558;48.242;11.654;2022-11-20T23:21:53;0.50;;;0.50;;
62509;SDS011;48558;48.242;11.654;2022-11-20T23:26:07;0.30;;;0.30;;
62509;SDS011;48558;48.242;11.654;2022-11-20T23:30:21;0.40;;;0.40;;
62509;SDS011;48558;48.242;11.654;2022-11-20T23:34:33;0.32;;;0.32;;
62509;SDS011;48558;48.242;11.654;2022-11-20T23:38:45;0.30;;;0.30;;
62509;SDS011;48558;48.242;11.654;2022-11-20T23:42:58;0.43;;;0.43;;
62509;SDS011;48558;48.242;11.654;2022-11-20T23:47:28;0.15;;;0.15;;
62509;SDS011;48558;48.242;11.654;2022-11-20T23:51:41;0.30;;;0.30;;
62509;SDS011;48558;48.242;11.654;2022-11-20T23:55:55;0.45;;;0.45;;
